Terminal Aerodrome Forecast
Issued by NWS Wilmington, OH

Current Version | Previous Version | Text Only | Print | Product List | Glossary Off
Versions: 1 2 3 4 5 6 7 8 9 10 11 12 13 14 15 16 17 18 19 20 21 22 23

000
FTUS41 KILN 192300
TAFDAY
TAF
KDAY 192340Z 2000/2024 14004KT P6SM SCT025 BKN060
     FM200400 VRB03KT P6SM OVC012
      TEMPO 2008/2012 5SM BR
     FM201400 12005KT P6SM OVC025
     FM201800 13006KT P6SM BKN035=

USA.gov is the U.S. government's official web portal to all federal, state and local government web resources and services.